Time;durP1;ratioP1;P1;durP2;ratioP2;P2;SDS_P1;SDS_P2;PMS_P1;PMS_P2;Temp;Humidity;BMP_temperature;BMP_pressure;BME280_temperature;BME280_humidity;BME280_pressure;Samples;Min_cycle;Max_cycle;Signal;HPM_P1;HPM_P2
2024/01/16 00:01:04;;;;;;;19.47;7.37;;;-2.00;99.90;;;;;;4444770;28;654639;-73
2024/01/16 00:03:51;;;;;;;20.73;7.60;;;-2.00;99.90;;;;;;4456876;28;655496;-74
2024/01/16 00:06:40;;;;;;;13.43;5.27;;;-2.00;99.90;;;;;;4435982;28;655738;-71
2024/01/16 00:09:27;;;;;;;20.33;9.10;;;-1.90;99.90;;;;;;4443614;28;655908;-72
2024/01/16 00:12:15;;;;;;;11.13;5.43;;;-2.00;99.90;;;;;;4461322;28;655949;-73
2024/01/16 00:15:02;;;;;;;11.10;5.70;;;-1.90;99.90;;;;;;4449729;28;655936;-72
2024/01/16 00:17:51;;;;;;;18.97;10.63;;;-1.90;99.90;;;;;;4457471;28;655690;-73
2024/01/16 00:20:38;;;;;;;15.20;7.70;;;-2.00;99.90;;;;;;4432517;28;656522;-73
2024/01/16 00:23:26;;;;;;;18.63;9.43;;;-1.90;99.90;;;;;;4440341;28;657922;-73
2024/01/16 00:26:21;;;;;;;20.07;8.83;;;-1.90;99.90;;;;;;4438340;28;655918;-72
2024/01/16 00:29:08;;;;;;;11.33;5.13;;;-2.00;99.90;;;;;;4404533;28;655965;-73
2024/01/16 00:31:56;;;;;;;11.77;5.90;;;-1.90;99.90;;;;;;4458641;28;655440;-73
2024/01/16 00:34:44;;;;;;;15.70;8.23;;;-1.90;99.90;;;;;;4440978;28;656051;-73
2024/01/16 00:37:31;;;;;;;17.87;10.70;;;-1.90;99.90;;;;;;4448948;28;655679;-73
2024/01/16 00:40:19;;;;;;;16.70;7.90;;;-1.90;99.90;;;;;;4433243;28;657566;-73
2024/01/16 00:43:06;;;;;;;15.40;6.33;;;-1.90;99.90;;;;;;4456926;28;656096;-73
2024/01/16 00:45:53;;;;;;;15.57;8.77;;;-1.80;99.90;;;;;;4436872;28;656049;-73
2024/01/16 00:48:40;;;;;;;15.43;7.97;;;-1.90;99.90;;;;;;4451368;28;655675;-73
2024/01/16 00:51:29;;;;;;;19.10;9.23;;;-1.90;99.90;;;;;;4438679;27;655199;-72
2024/01/16 00:54:16;;;;;;;7.97;3.73;;;-1.90;99.90;;;;;;4443362;28;655858;-73
2024/01/16 00:57:04;;;;;;;16.03;7.73;;;-1.90;99.90;;;;;;4422356;27;654336;-73
2024/01/16 00:59:51;;;;;;;10.87;5.80;;;-1.80;99.90;;;;;;4453044;27;655457;-73
2024/01/16 01:02:38;;;;;;;14.10;6.63;;;-1.80;99.90;;;;;;4429968;27;655402;-72
2024/01/16 01:05:28;;;;;;;16.43;7.30;;;-1.80;99.90;;;;;;4451988;28;656107;-72
2024/01/16 01:08:17;;;;;;;21.00;6.67;;;-1.80;99.90;;;;;;4427112;27;656565;-72
2024/01/16 01:11:04;;;;;;;16.07;6.67;;;-1.80;99.90;;;;;;4439739;28;655648;-73
2024/01/16 01:13:52;;;;;;;15.83;7.40;;;-1.80;99.90;;;;;;4462224;28;655710;-74
2024/01/16 01:16:39;;;;;;;14.13;6.10;;;-1.80;99.90;;;;;;4438771;28;656805;-73
2024/01/16 01:19:26;;;;;;;19.50;9.33;;;-1.80;99.90;;;;;;4462067;28;655574;-73
2024/01/16 01:22:13;;;;;;;15.57;7.87;;;-1.70;99.90;;;;;;4444980;28;655703;-74
2024/01/16 01:25:02;;;;;;;11.05;3.97;;;-1.70;99.90;;;;;;4459547;28;656417;-73
2024/01/16 01:27:49;;;;;;;25.20;9.67;;;-1.70;99.90;;;;;;4441276;28;655599;-73
2024/01/16 01:30:36;;;;;;;20.83;11.67;;;-1.80;99.90;;;;;;4449949;27;655159;-74
2024/01/16 01:33:23;;;;;;;20.40;10.57;;;-1.80;99.90;;;;;;4437312;27;656531;-72
2024/01/16 01:36:11;;;;;;;19.77;10.90;;;-1.80;99.90;;;;;;4456710;28;657146;-73
2024/01/16 01:38:58;;;;;;;19.67;9.13;;;-1.70;99.90;;;;;;4441165;27;656489;-73
2024/01/16 01:41:46;;;;;;;22.80;10.77;;;-1.80;99.90;;;;;;4456527;27;656763;-73
2024/01/16 01:44:33;;;;;;;19.70;8.27;;;-1.80;99.90;;;;;;4430380;27;656805;-73
2024/01/16 01:47:21;;;;;;;9.97;4.70;;;-1.80;99.90;;;;;;4462514;28;656349;-73
2024/01/16 01:50:09;;;;;;;9.13;4.20;;;-1.70;99.90;;;;;;4437817;28;655122;-73
2024/01/16 01:52:56;;;;;;;13.20;5.87;;;-1.70;99.90;;;;;;4448851;27;655086;-73
2024/01/16 01:55:43;;;;;;;28.40;11.33;;;-1.80;99.90;;;;;;4429792;28;655976;-73
2024/01/16 01:58:32;;;;;;;22.10;11.43;;;-1.80;99.90;;;;;;4458223;28;656758;-73
2024/01/16 02:01:19;;;;;;;21.07;9.40;;;-1.80;99.90;;;;;;4426596;28;656687;-74
2024/01/16 02:04:06;;;;;;;26.00;10.90;;;-1.70;99.90;;;;;;4454592;28;656517;-73
2024/01/16 02:06:53;;;;;;;17.07;5.80;;;-1.80;99.90;;;;;;4440578;28;656550;-71
2024/01/16 02:09:41;;;;;;;12.40;4.57;;;-1.80;99.90;;;;;;4460375;28;656761;-73
2024/01/16 02:12:28;;;;;;;19.13;7.37;;;-1.80;99.90;;;;;;4434753;27;655906;-73
2024/01/16 02:15:16;;;;;;;8.63;4.07;;;-1.80;99.90;;;;;;4461822;28;656357;-73
2024/01/16 02:18:04;;;;;;;33.23;11.90;;;-1.80;99.90;;;;;;4420769;28;654954;-73
2024/01/16 02:20:51;;;;;;;26.67;11.37;;;-1.90;99.90;;;;;;4463045;28;656550;-73
2024/01/16 02:23:40;;;;;;;34.13;13.33;;;-2.00;99.90;;;;;;4437612;28;657166;-73
2024/01/16 02:26:27;;;;;;;23.43;10.93;;;-2.00;99.90;;;;;;4446763;28;656759;-71
2024/01/16 02:29:16;;;;;;;28.30;14.07;;;-2.00;99.90;;;;;;4460478;28;656958;-74
2024/01/16 02:32:04;;;;;;;11.20;2.93;;;-1.90;99.90;;;;;;4440987;28;658046;-73
2024/01/16 02:34:51;;;;;;;24.37;9.40;;;-1.90;99.90;;;;;;4460470;28;655920;-73
2024/01/16 02:37:38;;;;;;;24.37;11.23;;;-1.80;99.90;;;;;;4431236;28;655656;-72
2024/01/16 02:40:27;;;;;;;15.17;6.10;;;-1.90;99.90;;;;;;4456895;28;657222;-74
2024/01/16 02:43:14;;;;;;;11.33;5.17;;;-1.90;99.90;;;;;;4421593;28;656887;-73
2024/01/16 02:46:01;;;;;;;17.35;7.68;;;-1.90;99.90;;;;;;4436955;28;655808;-73
2024/01/16 02:48:49;;;;;;;6.70;3.60;;;-1.80;99.90;;;;;;4435307;27;655867;-73
2024/01/16 02:51:36;;;;;;;8.13;3.67;;;-1.80;99.90;;;;;;4454533;28;655249;-74
2024/01/16 02:54:23;;;;;;;13.83;6.00;;;-1.80;99.90;;;;;;4425258;28;654932;-73
2024/01/16 02:57:12;;;;;;;20.80;10.47;;;-1.80;99.90;;;;;;4461379;28;656241;-73
2024/01/16 02:59:59;;;;;;;10.67;5.70;;;-1.80;99.90;;;;;;4431526;28;656181;-73
2024/01/16 03:02:46;;;;;;;8.53;4.07;;;-1.80;99.90;;;;;;4456323;28;655516;-74
2024/01/16 03:05:33;;;;;;;16.60;9.10;;;-1.80;99.90;;;;;;4440396;28;654821;-73
2024/01/16 03:08:21;;;;;;;11.18;5.55;;;-1.90;99.90;;;;;;4460780;27;656361;-73
2024/01/16 03:11:08;;;;;;;10.13;3.60;;;-1.90;99.90;;;;;;4434585;28;655501;-73
2024/01/16 03:13:56;;;;;;;12.67;4.30;;;-1.90;99.90;;;;;;4451434;28;657238;-73
2024/01/16 03:16:44;;;;;;;13.03;6.53;;;-1.80;99.90;;;;;;4434965;28;655576;-74
2024/01/16 03:19:31;;;;;;;5.73;2.93;;;-1.80;99.90;;;;;;4450416;28;655111;-73
2024/01/16 03:22:19;;;;;;;9.67;4.77;;;-1.80;99.90;;;;;;4432933;28;654475;-72
2024/01/16 03:25:06;;;;;;;16.70;7.00;;;-1.80;99.90;;;;;;4454422;28;655594;-73
2024/01/16 03:27:54;;;;;;;15.23;7.50;;;-1.80;99.90;;;;;;4429836;28;655629;-73
2024/01/16 03:30:42;;;;;;;16.20;8.33;;;-1.80;99.90;;;;;;4458927;28;656307;-74
2024/01/16 03:33:29;;;;;;;15.67;8.73;;;-1.80;99.90;;;;;;4431436;28;656320;-73
2024/01/16 03:36:17;;;;;;;14.13;6.22;;;-1.90;99.90;;;;;;4455639;28;655423;-74
2024/01/16 03:39:05;;;;;;;20.97;9.87;;;-1.90;99.90;;;;;;4430648;28;655705;-73
2024/01/16 03:41:53;;;;;;;17.65;8.13;;;-1.90;99.90;;;;;;4438934;28;655812;-72
2024/01/16 03:44:40;;;;;;;10.50;4.37;;;-2.00;99.90;;;;;;4451849;28;655640;-73
2024/01/16 03:47:29;;;;;;;13.97;7.80;;;-2.00;99.90;;;;;;4441798;28;655517;-72
2024/01/16 03:50:16;;;;;;;7.83;3.87;;;-2.00;99.90;;;;;;4450403;28;655575;-73
2024/01/16 03:53:03;;;;;;;11.47;5.80;;;-2.10;99.90;;;;;;4439967;28;655225;-72
2024/01/16 03:55:51;;;;;;;19.80;9.13;;;-2.00;99.90;;;;;;4447744;28;655973;-73
2024/01/16 03:58:38;;;;;;;16.47;7.03;;;-2.00;99.90;;;;;;4426986;28;655458;-73
2024/01/16 04:01:32;;;;;;;14.77;6.90;;;-2.00;99.90;;;;;;4456107;28;656771;-74
2024/01/16 04:04:22;;;;;;;20.90;11.13;;;-2.00;99.90;;;;;;4412219;28;656397;-72
2024/01/16 04:07:09;;;;;;;25.67;12.03;;;-2.00;99.90;;;;;;4440396;28;657590;-74
2024/01/16 04:09:56;;;;;;;8.40;4.23;;;-2.00;99.90;;;;;;4453649;28;656368;-73
2024/01/16 04:12:44;;;;;;;17.33;9.60;;;-1.90;99.90;;;;;;4428668;28;655073;-73
2024/01/16 04:15:31;;;;;;;25.00;11.87;;;-2.00;99.90;;;;;;4448420;28;657059;-73
2024/01/16 04:18:18;;;;;;;32.13;10.00;;;-2.00;99.90;;;;;;4434722;28;656885;-74
2024/01/16 04:21:07;;;;;;;23.15;10.90;;;-2.00;99.90;;;;;;4450231;28;657335;-74
2024/01/16 04:23:54;;;;;;;23.17;8.77;;;-2.00;99.90;;;;;;4435116;28;656515;-74
2024/01/16 04:26:41;;;;;;;28.67;14.03;;;-2.00;99.90;;;;;;4453433;28;655649;-74
2024/01/16 04:29:28;;;;;;;15.17;7.70;;;-1.90;99.90;;;;;;4439588;28;656566;-71
2024/01/16 04:32:15;;;;;;;19.83;8.87;;;-1.90;99.90;;;;;;4452085;27;655680;-74
2024/01/16 04:35:03;;;;;;;16.65;8.02;;;-1.90;99.90;;;;;;4446080;27;655392;-72
2024/01/16 04:37:52;;;;;;;13.70;5.87;;;-1.90;99.90;;;;;;4462941;27;656266;-73
2024/01/16 04:40:39;;;;;;;12.30;5.43;;;-1.90;99.90;;;;;;4440646;28;656624;-73
2024/01/16 04:43:26;;;;;;;17.33;7.33;;;-1.80;99.90;;;;;;4464951;27;655822;-73
2024/01/16 04:46:15;;;;;;;18.47;7.63;;;-1.80;99.90;;;;;;4435836;28;655294;-73
2024/01/16 04:49:02;;;;;;;22.30;8.33;;;-1.70;99.90;;;;;;4455934;28;655272;-73
2024/01/16 04:51:49;;;;;;;13.63;8.07;;;-1.60;99.90;;;;;;4435813;28;655766;-74
2024/01/16 04:54:38;;;;;;;18.07;10.43;;;-1.70;99.90;;;;;;4465692;28;655192;-74
2024/01/16 04:57:25;;;;;;;14.93;6.60;;;-1.60;99.90;;;;;;4432256;28;657305;-74
2024/01/16 05:00:13;;;;;;;23.43;11.33;;;-1.60;99.90;;;;;;4456057;28;655159;-72
2024/01/16 05:03:00;;;;;;;16.90;9.63;;;-1.60;99.90;;;;;;4453206;27;657152;-73
2024/01/16 05:05:47;;;;;;;17.50;10.47;;;-1.50;99.90;;;;;;4442274;28;655994;-73
2024/01/16 05:08:35;;;;;;;14.53;6.67;;;-1.60;99.90;;;;;;4459924;28;657227;-74
2024/01/16 05:11:24;;;;;;;13.40;6.37;;;-1.70;99.90;;;;;;4437128;28;655567;-72
2024/01/16 05:14:11;;;;;;;9.27;4.70;;;-1.80;99.90;;;;;;4462600;28;655448;-74
2024/01/16 05:16:58;;;;;;;8.37;3.30;;;-1.80;99.90;;;;;;4435892;28;654576;-73
2024/01/16 05:19:45;;;;;;;9.57;3.97;;;-2.00;99.90;;;;;;4463154;28;654830;-74
2024/01/16 05:22:32;;;;;;;4.93;2.50;;;-2.10;99.90;;;;;;4444504;28;655101;-72
2024/01/16 05:25:19;;;;;;;4.63;2.47;;;-2.20;99.90;;;;;;4466858;28;654479;-73
2024/01/16 05:28:08;;;;;;;7.93;3.37;;;-2.20;99.90;;;;;;4456295;28;655063;-74
2024/01/16 05:30:55;;;;;;;3.40;1.97;;;-2.30;99.90;;;;;;4440976;28;654259;-73
2024/01/16 05:33:43;;;;;;;7.18;3.50;;;-2.30;99.90;;;;;;4428563;28;655085;-71
2024/01/16 05:36:30;;;;;;;4.43;2.20;;;-2.40;99.90;;;;;;4457905;28;654073;-74
2024/01/16 05:39:18;;;;;;;4.67;1.63;;;-2.40;99.90;;;;;;4445831;28;654683;-71
2024/01/16 05:42:06;;;;;;;7.80;3.07;;;-2.40;99.90;;;;;;4461808;27;655581;-73
2024/01/16 05:44:54;;;;;;;6.53;3.50;;;-2.40;99.90;;;;;;4437052;28;654888;-73
2024/01/16 05:47:41;;;;;;;8.90;3.57;;;-2.30;99.90;;;;;;4456116;28;654449;-74
2024/01/16 05:50:30;;;;;;;7.90;3.20;;;-2.40;99.90;;;;;;4435669;28;655043;-74
2024/01/16 05:53:17;;;;;;;7.93;3.87;;;-2.30;99.90;;;;;;4460031;27;654856;-73
2024/01/16 05:56:05;;;;;;;8.63;4.00;;;-2.30;99.90;;;;;;4468253;28;654358;-74
2024/01/16 05:58:52;;;;;;;9.20;3.90;;;-2.30;99.90;;;;;;4441369;27;654294;-72
2024/01/16 06:01:41;;;;;;;10.83;4.50;;;-2.30;99.90;;;;;;4464360;28;654624;-74
2024/01/16 06:04:28;;;;;;;11.77;3.77;;;-2.30;99.90;;;;;;4443463;28;655538;-73
2024/01/16 06:07:15;;;;;;;9.93;4.43;;;-2.50;99.90;;;;;;4452551;28;655718;-74
2024/01/16 06:10:03;;;;;;;3.13;1.77;;;-2.60;99.90;;;;;;4424688;28;654880;-73
2024/01/16 06:12:50;;;;;;;9.83;3.90;;;-2.60;99.90;;;;;;4459604;28;655285;-74
2024/01/16 06:15:37;;;;;;;10.43;4.23;;;-2.60;99.90;;;;;;4453028;28;654736;-73
2024/01/16 06:18:26;;;;;;;2.03;1.23;;;-2.60;99.90;;;;;;4459041;28;655914;-74
2024/01/16 06:21:14;;;;;;;8.10;3.10;;;-2.60;99.90;;;;;;4440844;28;654652;-74
2024/01/16 06:24:01;;;;;;;6.35;3.15;;;-2.60;99.90;;;;;;4452508;28;654874;-73
2024/01/16 06:26:49;;;;;;;8.43;3.83;;;-2.70;99.90;;;;;;4439743;28;655106;-73
2024/01/16 06:29:36;;;;;;;12.70;3.83;;;-2.70;99.90;;;;;;4452562;28;655122;-73
2024/01/16 06:32:23;;;;;;;8.03;4.23;;;-2.70;99.90;;;;;;4427917;28;655639;-73
2024/01/16 06:35:13;;;;;;;9.17;4.47;;;-2.60;99.90;;;;;;4461777;27;655319;-74
2024/01/16 06:38:00;;;;;;;9.67;4.07;;;-2.60;99.90;;;;;;4429943;28;655121;-73
2024/01/16 06:40:47;;;;;;;11.63;4.90;;;-2.60;99.90;;;;;;4441638;28;654990;-73
2024/01/16 06:43:35;;;;;;;10.03;4.93;;;-2.60;99.90;;;;;;4461908;28;655776;-73
2024/01/16 06:46:22;;;;;;;12.17;5.33;;;-2.60;99.90;;;;;;4462182;28;655294;-74
2024/01/16 06:49:09;;;;;;;15.23;5.10;;;-2.70;99.90;;;;;;4438519;28;655959;-74
2024/01/16 06:51:58;;;;;;;11.23;4.73;;;-2.60;99.90;;;;;;4457314;28;656186;-74
2024/01/16 06:54:45;;;;;;;7.97;3.03;;;-2.60;99.90;;;;;;4431182;28;656182;-73
2024/01/16 06:57:32;;;;;;;17.77;6.03;;;-2.50;99.90;;;;;;4434420;28;654986;-74
2024/01/16 07:00:22;;;;;;;22.07;7.40;;;-2.50;99.90;;;;;;4454888;28;655303;-73
2024/01/16 07:03:09;;;;;;;13.77;6.17;;;-2.40;99.90;;;;;;4432586;28;656594;-73
2024/01/16 07:05:56;;;;;;;12.20;6.23;;;-2.30;99.90;;;;;;4459059;28;655836;-73
2024/01/16 07:08:45;;;;;;;16.23;8.33;;;-2.20;99.90;;;;;;4430769;28;655731;-73
2024/01/16 07:11:33;;;;;;;11.80;5.50;;;-2.30;99.90;;;;;;4425081;28;656229;-73
2024/01/16 07:14:20;;;;;;;18.93;8.70;;;-2.20;99.90;;;;;;4452454;28;656295;-73
2024/01/16 07:17:08;;;;;;;14.85;7.88;;;-2.20;99.90;;;;;;4440244;28;655407;-73
2024/01/16 07:19:55;;;;;;;26.40;11.17;;;-2.10;99.90;;;;;;4456936;28;655969;-73
2024/01/16 07:22:43;;;;;;;31.87;13.17;;;-1.90;99.90;;;;;;4439242;28;656603;-73
2024/01/16 07:25:31;;;;;;;21.77;11.27;;;-1.90;99.90;;;;;;4440978;28;657246;-73
2024/01/16 07:28:19;;;;;;;33.90;14.97;;;-1.90;99.90;;;;;;4429563;28;656632;-74
2024/01/16 07:31:06;;;;;;;24.47;12.07;;;-1.90;99.90;;;;;;4453973;28;656606;-73
2024/01/16 07:33:53;;;;;;;30.83;13.77;;;-1.80;99.90;;;;;;4435418;27;657317;-74
2024/01/16 07:36:40;;;;;;;25.77;11.63;;;-1.90;99.90;;;;;;4456598;28;657115;-74
2024/01/16 07:39:28;;;;;;;26.80;11.70;;;-1.80;99.90;;;;;;4428067;28;657050;-73
2024/01/16 07:42:16;;;;;;;28.03;12.43;;;-1.80;99.90;;;;;;4418912;28;656877;-74
2024/01/16 07:45:05;;;;;;;42.90;12.97;;;-1.80;99.90;;;;;;4403840;28;656439;-73
2024/01/16 07:47:52;;;;;;;29.03;12.90;;;-1.80;99.90;;;;;;4419347;28;656493;-73
2024/01/16 07:50:39;;;;;;;9.05;4.30;;;-1.70;99.90;;;;;;4428632;28;656791;-73
2024/01/16 07:53:28;;;;;;;13.20;6.40;;;-1.80;99.90;;;;;;4427068;28;655026;-73
2024/01/16 07:56:15;;;;;;;18.13;7.73;;;-1.80;99.90;;;;;;4405149;28;656419;-73
2024/01/16 07:59:04;;;;;;;12.87;6.63;;;-1.80;99.90;;;;;;4420058;28;655661;-73
2024/01/16 08:01:51;;;;;;;24.10;10.00;;;-1.80;99.90;;;;;;4435329;28;654986;-73
2024/01/16 08:04:38;;;;;;;15.40;6.20;;;-1.70;99.90;;;;;;4410753;28;657555;-73
2024/01/16 08:07:26;;;;;;;11.15;4.57;;;-1.80;99.90;;;;;;4424429;28;656403;-73
2024/01/16 08:10:13;;;;;;;10.73;4.03;;;-1.60;99.90;;;;;;4408942;28;656037;-73
2024/01/16 08:13:01;;;;;;;18.03;8.53;;;-1.60;99.90;;;;;;4435110;28;656141;-73
2024/01/16 08:15:50;;;;;;;18.03;8.67;;;-1.70;99.90;;;;;;4406548;28;655403;-73
2024/01/16 08:18:37;;;;;;;16.17;7.90;;;-1.60;99.90;;;;;;4420723;28;655716;-73
2024/01/16 08:21:25;;;;;;;18.33;9.90;;;-1.50;99.90;;;;;;4428187;28;655310;-73
2024/01/16 08:24:12;;;;;;;18.37;9.30;;;-1.50;99.90;;;;;;4431413;28;655789;-73
2024/01/16 08:26:59;;;;;;;89.10;9.73;;;-1.40;99.90;;;;;;4402277;28;656228;-73
2024/01/16 08:29:48;;;;;;;16.40;7.43;;;-1.30;99.90;;;;;;4414967;28;655536;-72
2024/01/16 08:32:36;;;;;;;17.43;7.47;;;-1.20;99.90;;;;;;4405794;28;655959;-73
2024/01/16 08:35:24;;;;;;;14.47;7.10;;;-1.30;99.90;;;;;;4405710;28;655473;-73
2024/01/16 08:38:11;;;;;;;20.83;10.10;;;-1.10;99.90;;;;;;4432259;28;655885;-73
2024/01/16 08:40:58;;;;;;;18.57;7.80;;;-0.70;99.90;;;;;;4421204;28;656468;-72
2024/01/16 08:43:45;;;;;;;15.20;7.83;;;-1.00;99.90;;;;;;4467318;28;655982;-73
2024/01/16 08:46:32;;;;;;;17.08;7.30;;;-0.90;99.90;;;;;;4445799;28;655919;-73
2024/01/16 08:49:21;;;;;;;12.00;6.03;;;-0.90;99.90;;;;;;4462009;27;655708;-73
2024/01/16 08:52:08;;;;;;;13.83;7.13;;;-0.80;99.90;;;;;;4438351;28;655400;-73
2024/01/16 08:54:55;;;;;;;15.47;7.43;;;-0.40;99.90;;;;;;4463857;28;655517;-73
2024/01/16 08:57:42;;;;;;;13.48;5.63;;;-0.50;99.90;;;;;;4444292;28;656191;-73
2024/01/16 09:00:30;;;;;;;11.23;5.00;;;-0.40;99.90;;;;;;4457879;28;656700;-72
2024/01/16 09:03:18;;;;;;;11.57;6.13;;;-0.20;99.90;;;;;;4455603;28;655101;-73
2024/01/16 09:06:06;;;;;;;16.20;6.70;;;-0.40;99.90;;;;;;4436152;27;655824;-72
2024/01/16 09:08:54;;;;;;;17.10;7.20;;;-0.30;99.90;;;;;;4426083;28;655882;-73
2024/01/16 09:11:41;;;;;;;10.27;4.63;;;-0.40;99.90;;;;;;4461615;28;655730;-73
2024/01/16 09:14:28;;;;;;;7.90;3.23;;;-0.40;99.90;;;;;;4445043;28;656261;-72
2024/01/16 09:17:15;;;;;;;13.17;6.63;;;-0.10;99.90;;;;;;4464353;28;654942;-72
2024/01/16 09:20:03;;;;;;;18.38;5.25;;;-0.20;99.90;;;;;;4444774;28;656190;-72
2024/01/16 09:22:51;;;;;;;11.57;5.00;;;0.00;99.90;;;;;;4449025;28;657032;-72
2024/01/16 09:25:38;;;;;;;24.40;6.30;;;0.00;99.90;;;;;;4430380;28;655226;-72
2024/01/16 09:28:28;;;;;;;9.80;3.00;;;-0.10;99.90;;;;;;4464179;28;654472;-72
2024/01/16 09:31:16;;;;;;;14.97;6.07;;;-0.10;99.90;;;;;;4442480;28;655348;-72
2024/01/16 09:34:03;;;;;;;8.57;3.73;;;-0.30;99.90;;;;;;4441105;28;655856;-72
2024/01/16 09:36:50;;;;;;;9.03;3.20;;;-0.40;99.90;;;;;;4451948;28;654891;-72
2024/01/16 09:39:39;;;;;;;15.32;6.20;;;-0.40;99.90;;;;;;4439442;28;654471;-72
2024/01/16 09:42:26;;;;;;;9.80;4.47;;;-0.60;99.90;;;;;;4461338;28;655266;-72
2024/01/16 09:45:13;;;;;;;14.50;6.10;;;-0.80;99.90;;;;;;4442618;28;654327;-72
2024/01/16 09:48:00;;;;;;;10.88;4.55;;;-0.90;99.90;;;;;;4457986;28;656017;-72
2024/01/16 09:50:48;;;;;;;15.83;6.77;;;-1.00;99.90;;;;;;4428668;28;655232;-72
2024/01/16 09:53:35;;;;;;;14.07;5.60;;;-1.10;99.90;;;;;;4456701;28;656323;-72
2024/01/16 09:56:24;;;;;;;16.37;6.30;;;-1.00;99.90;;;;;;4457827;28;655834;-72
2024/01/16 09:59:13;;;;;;;14.87;5.57;;;-1.10;99.90;;;;;;4456450;28;655679;-72
2024/01/16 10:02:05;;;;;;;22.10;8.27;;;-1.10;99.90;;;;;;4438114;28;656463;-72
2024/01/16 10:04:52;;;;;;;17.02;7.55;;;-1.00;99.90;;;;;;4429723;27;655467;-72
2024/01/16 10:07:40;;;;;;;12.43;5.43;;;-0.90;99.90;;;;;;4453950;27;656598;-72
2024/01/16 10:10:28;;;;;;;16.70;6.33;;;-0.90;99.90;;;;;;4437966;28;655323;-72
2024/01/16 10:13:17;;;;;;;21.17;8.63;;;-0.70;99.90;;;;;;4447815;28;656865;-72
2024/01/16 10:16:04;;;;;;;7.67;3.37;;;-0.70;99.90;;;;;;4431860;28;656348;-72
2024/01/16 10:18:52;;;;;;;19.00;6.63;;;-0.70;99.90;;;;;;4452684;28;655094;-72
2024/01/16 10:21:39;;;;;;;13.50;5.83;;;-0.70;99.90;;;;;;4426274;28;655959;-72
2024/01/16 10:24:26;;;;;;;15.87;5.30;;;-0.80;99.90;;;;;;4460632;28;655242;-72
2024/01/16 10:27:13;;;;;;;7.57;4.03;;;-0.80;99.90;;;;;;4440333;27;655826;-72
2024/01/16 10:30:02;;;;;;;16.07;6.50;;;-1.00;99.90;;;;;;4464496;27;654687;-72
2024/01/16 10:32:49;;;;;;;12.35;4.82;;;-1.00;99.90;;;;;;4424431;28;656071;-72
2024/01/16 10:35:37;;;;;;;11.30;5.37;;;-1.00;99.90;;;;;;4449782;28;654950;-72
2024/01/16 10:38:25;;;;;;;8.07;4.10;;;-1.00;99.90;;;;;;4444239;28;655559;-72
2024/01/16 10:41:13;;;;;;;19.08;7.03;;;-1.20;99.90;;;;;;4443514;28;655393;-72
2024/01/16 10:44:04;;;;;;;18.20;6.83;;;-1.20;99.90;;;;;;4467319;28;655344;-72
2024/01/16 10:46:53;;;;;;;11.83;6.40;;;-1.10;99.90;;;;;;4430099;27;655449;-72
2024/01/16 10:49:40;;;;;;;14.57;6.50;;;-0.90;99.90;;;;;;4434548;28;656911;-72
2024/01/16 10:52:28;;;;;;;5.07;2.80;;;-0.80;99.90;;;;;;4434657;28;655885;-72
2024/01/16 10:55:20;;;;;;;15.07;7.43;;;-0.80;99.90;;;;;;4463587;28;654496;-72
2024/01/16 10:58:08;;;;;;;10.43;3.63;;;-0.90;99.90;;;;;;4427407;28;655591;-72
2024/01/16 11:00:55;;;;;;;12.73;6.07;;;-0.70;99.90;;;;;;4457158;27;656811;-72
2024/01/16 11:03:48;;;;;;;20.03;8.67;;;-0.70;99.90;;;;;;4456301;28;656281;-72
2024/01/16 11:06:35;;;;;;;14.47;7.33;;;-0.80;99.90;;;;;;4441146;28;656289;-72
2024/01/16 11:09:22;;;;;;;8.07;4.25;;;-0.70;99.90;;;;;;4445304;28;655535;-72
2024/01/16 11:12:11;;;;;;;14.90;7.10;;;-0.70;99.90;;;;;;4464401;28;655180;-72
2024/01/16 11:14:58;;;;;;;10.83;5.53;;;-0.60;99.90;;;;;;4445173;28;655973;-72
2024/01/16 11:17:46;;;;;;;18.77;7.60;;;-0.60;99.90;;;;;;4466274;28;656515;-72
2024/01/16 11:20:34;;;;;;;14.60;7.20;;;-0.30;99.90;;;;;;4438863;28;655455;-72
2024/01/16 11:23:21;;;;;;;15.93;7.93;;;-0.50;99.90;;;;;;4460030;28;655740;-72
2024/01/16 11:26:28;;;;;;;14.10;5.40;;;-0.60;99.90;;;;;;4426819;28;655554;-72
2024/01/16 11:29:40;;;;;;;14.80;6.83;;;-0.60;99.90;;;;;;4414961;28;655753;-72
2024/01/16 11:32:35;;;;;;;14.40;7.00;;;-0.40;99.90;;;;;;4424767;28;655661;-72
2024/01/16 11:35:34;;;;;;;20.00;4.73;;;-0.20;99.90;;;;;;4423181;28;655841;-72
2024/01/16 11:38:22;;;;;;;10.00;4.43;;;-0.20;99.90;;;;;;4436210;28;656207;-72
2024/01/16 11:41:09;;;;;;;12.50;5.27;;;0.80;99.90;;;;;;4432455;28;655284;-72
2024/01/16 11:43:57;;;;;;;14.13;5.43;;;2.40;99.90;;;;;;4441764;28;653954;-72
2024/01/16 11:47:03;;;;;;;12.23;4.97;;;3.50;99.90;;;;;;4467217;28;654944;-72
2024/01/16 11:49:52;;;;;;;14.93;4.27;;;3.90;99.90;;;;;;4432460;28;655508;-73
2024/01/16 11:52:42;;;;;;;11.00;4.43;;;3.60;99.90;;;;;;4435846;28;655100;-72
2024/01/16 11:55:30;;;;;;;8.57;2.47;;;3.30;99.90;;;;;;4438718;28;654527;-72
2024/01/16 11:58:34;;;;;;;10.75;4.55;;;2.20;99.90;;;;;;4435015;28;653926;-72
2024/01/16 12:01:21;;;;;;;11.23;5.23;;;1.90;99.90;;;;;;4440142;28;654912;-72
2024/01/16 12:04:09;;;;;;;11.27;3.30;;;1.30;99.90;;;;;;4436012;28;655176;-72
2024/01/16 12:06:59;;;;;;;11.03;5.20;;;1.00;99.90;;;;;;4460988;28;654951;-72
2024/01/16 12:09:48;;;;;;;9.83;4.57;;;0.40;99.90;;;;;;4441862;28;654311;-72
2024/01/16 12:12:35;;;;;;;10.63;4.70;;;0.50;99.90;;;;;;4443898;28;655121;-72
2024/01/16 12:15:23;;;;;;;8.73;4.47;;;0.40;99.90;;;;;;4453340;28;654392;-72
2024/01/16 12:18:10;;;;;;;14.03;6.37;;;0.00;99.90;;;;;;4455540;28;653102;-73
2024/01/16 12:20:58;;;;;;;7.33;2.80;;;-0.10;99.90;;;;;;4457859;28;654620;-72
2024/01/16 12:23:45;;;;;;;10.37;2.20;;;-0.30;99.90;;;;;;4466057;28;655242;-72
2024/01/16 12:26:34;;;;;;;6.20;3.30;;;-0.50;99.90;;;;;;4436130;28;655389;-73
2024/01/16 12:29:21;;;;;;;7.03;2.97;;;-0.50;99.90;;;;;;4453572;28;654443;-73
2024/01/16 12:32:09;;;;;;;12.13;4.40;;;-0.40;99.90;;;;;;4425199;28;654333;-73
2024/01/16 12:34:56;;;;;;;5.03;2.47;;;-0.50;99.90;;;;;;4458695;28;656380;-72
2024/01/16 12:37:43;;;;;;;5.87;1.87;;;-0.50;99.90;;;;;;4431464;28;654765;-72
2024/01/16 12:40:31;;;;;;;7.97;3.15;;;-0.20;99.90;;;;;;4458496;28;655939;-73
2024/01/16 12:43:19;;;;;;;11.00;4.20;;;0.80;99.90;;;;;;4441398;28;654759;-73
2024/01/16 12:46:07;;;;;;;8.98;3.42;;;1.40;99.90;;;;;;4464914;28;654725;-73
2024/01/16 12:49:00;;;;;;;7.93;4.10;;;1.50;99.90;;;;;;4437896;28;654701;-72
2024/01/16 12:51:48;;;;;;;9.07;4.10;;;1.50;99.90;;;;;;4446329;28;653306;-73
2024/01/16 12:54:35;;;;;;;9.53;3.83;;;1.80;99.90;;;;;;4466406;28;654792;-73
2024/01/16 12:57:23;;;;;;;6.03;3.37;;;2.40;99.90;;;;;;4443959;28;653566;-73
2024/01/16 13:00:25;;;;;;;7.47;3.47;;;3.10;99.90;;;;;;4462225;27;654121;-73
2024/01/16 13:03:16;;;;;;;5.83;1.60;;;3.20;99.90;;;;;;4459639;28;653172;-73
2024/01/16 13:06:04;;;;;;;7.80;3.13;;;3.30;99.90;;;;;;4433605;27;653443;-73
2024/01/16 13:08:52;;;;;;;7.17;2.90;;;3.20;99.90;;;;;;4458377;28;653408;-73
2024/01/16 13:11:47;;;;;;;3.30;1.90;;;1.90;99.90;;;;;;4435227;28;653866;-73
2024/01/16 13:14:34;;;;;;;8.97;3.43;;;0.90;99.90;;;;;;4446237;27;653845;-73
2024/01/16 13:17:23;;;;;;;10.18;4.55;;;0.10;99.90;;;;;;4463986;28;653321;-73
2024/01/16 13:20:13;;;;;;;13.57;4.50;;;0.00;99.90;;;;;;4430155;28;655121;-73
2024/01/16 13:23:00;;;;;;;8.90;3.90;;;0.00;99.90;;;;;;4444041;28;654981;-73
2024/01/16 13:25:48;;;;;;;10.17;4.17;;;0.40;99.90;;;;;;4456579;28;653428;-73
2024/01/16 13:28:35;;;;;;;9.23;3.93;;;0.30;99.90;;;;;;4458130;28;655221;-73
2024/01/16 13:31:22;;;;;;;11.93;4.13;;;0.10;99.90;;;;;;4442793;28;653586;-73
2024/01/16 13:34:11;;;;;;;7.40;3.80;;;0.40;99.90;;;;;;4464718;27;655396;-73
2024/01/16 13:36:59;;;;;;;7.00;4.10;;;0.40;99.90;;;;;;4439034;28;653182;-73
2024/01/16 13:39:46;;;;;;;10.95;4.97;;;0.30;99.90;;;;;;4469929;28;653484;-73
2024/01/16 13:42:34;;;;;;;8.53;4.87;;;0.60;99.90;;;;;;4427035;28;655037;-73
2024/01/16 13:45:21;;;;;;;11.70;5.13;;;0.50;99.90;;;;;;4461479;28;654618;-73
2024/01/16 13:48:09;;;;;;;14.20;5.60;;;0.80;99.90;;;;;;4433458;28;654247;-73
2024/01/16 13:50:58;;;;;;;12.17;6.00;;;0.60;99.90;;;;;;4460176;28;654340;-73
2024/01/16 13:53:45;;;;;;;12.00;6.20;;;0.80;99.90;;;;;;4441416;28;655541;-73
2024/01/16 13:56:32;;;;;;;14.77;6.73;;;0.70;99.90;;;;;;4459902;28;654246;-73
2024/01/16 13:59:20;;;;;;;15.70;7.53;;;0.50;99.90;;;;;;4468316;28;655565;-73
2024/01/16 14:02:08;;;;;;;16.13;7.93;;;-0.20;99.90;;;;;;4465127;28;654454;-72
2024/01/16 14:04:55;;;;;;;17.53;8.43;;;-0.30;99.90;;;;;;4439218;28;656336;-73
2024/01/16 14:07:45;;;;;;;17.97;8.70;;;-0.40;99.90;;;;;;4453192;28;655518;-73
2024/01/16 14:10:33;;;;;;;15.10;8.37;;;-0.10;99.90;;;;;;4438435;28;655549;-73
2024/01/16 14:13:20;;;;;;;18.97;8.90;;;-0.20;99.90;;;;;;4455574;28;656495;-72
2024/01/16 14:16:07;;;;;;;14.73;7.60;;;-0.30;99.90;;;;;;4454470;28;655767;-72